Time;durP1;ratioP1;P1;durP2;ratioP2;P2;SDS_P1;SDS_P2;PMS_P1;PMS_P2;Temp;Humidity;BMP_temperature;BMP_pressure;BME280_temperature;BME280_humidity;BME280_pressure;Samples;Min_cycle;Max_cycle;Signal;HPM_P1;HPM_P2
2021/04/03 00:02:14;;;;;;;17.73;5.47;;;;;;;;;;5034579;28;20472;-60
2021/04/03 00:04:40;;;;;;;14.17;5.17;;;;;;;;;;5034221;28;20444;-62
2021/04/03 00:07:07;;;;;;;13.20;4.97;;;;;;;;;;5034287;28;20445;-59
2021/04/03 00:09:33;;;;;;;22.57;7.80;;;;;;;;;;5034371;28;20466;-62
2021/04/03 00:12:00;;;;;;;18.93;5.77;;;;;;;;;;5033961;28;20540;-62
2021/04/03 00:14:26;;;;;;;20.87;7.50;;;;;;;;;;5034533;28;20456;-61
2021/04/03 00:16:53;;;;;;;18.17;5.93;;;;;;;;;;5033642;28;20446;-58
2021/04/03 00:19:20;;;;;;;17.77;5.97;;;;;;;;;;5034181;28;20451;-59
2021/04/03 00:21:46;;;;;;;21.10;6.60;;;;;;;;;;5033933;28;20844;-61
2021/04/03 00:24:13;;;;;;;24.93;6.53;;;;;;;;;;5033994;28;20448;-60
2021/04/03 00:26:39;;;;;;;16.57;7.10;;;;;;;;;;5033640;28;20463;-60
2021/04/03 00:29:06;;;;;;;20.27;8.20;;;;;;;;;;5034065;28;20456;-61
2021/04/03 00:31:32;;;;;;;18.47;8.93;;;;;;;;;;5033993;28;21111;-60
2021/04/03 00:33:59;;;;;;;19.57;9.40;;;;;;;;;;5033616;28;20455;-62
2021/04/03 00:36:26;;;;;;;23.00;9.63;;;;;;;;;;5033757;28;20866;-59
2021/04/03 00:38:53;;;;;;;21.87;8.37;;;;;;;;;;5033387;28;20491;-59
2021/04/03 00:41:19;;;;;;;17.83;7.30;;;;;;;;;;5034031;28;20448;-60
2021/04/03 00:43:46;;;;;;;23.00;6.80;;;;;;;;;;5039024;28;20455;-62
2021/04/03 00:46:12;;;;;;;22.30;7.10;;;;;;;;;;5036544;28;20449;-62
2021/04/03 00:48:39;;;;;;;23.60;6.43;;;;;;;;;;5031323;28;20451;-56
2021/04/03 00:51:06;;;;;;;17.03;6.70;;;;;;;;;;5034891;28;20448;-63
2021/04/03 00:53:33;;;;;;;27.53;5.83;;;;;;;;;;5036507;28;20579;-62
2021/04/03 00:56:02;;;;;;;18.37;5.13;;;;;;;;;;5035376;28;20453;-62
2021/04/03 00:58:29;;;;;;;13.63;4.63;;;;;;;;;;5033733;28;20498;-62
2021/04/03 01:00:56;;;;;;;19.13;4.97;;;;;;;;;;5033285;28;20459;-62
2021/04/03 01:03:24;;;;;;;15.57;4.90;;;;;;;;;;5033591;28;20849;-61
2021/04/03 01:05:51;;;;;;;20.93;4.30;;;;;;;;;;5033073;28;20448;-60
2021/04/03 01:08:17;;;;;;;18.47;4.07;;;;;;;;;;5032846;28;21264;-60
2021/04/03 01:10:46;;;;;;;21.13;3.60;;;;;;;;;;5033273;28;20459;-63
2021/04/03 01:13:21;;;;;;;17.17;3.83;;;;;;;;;;5032910;28;20522;-62
2021/04/03 01:15:51;;;;;;;15.43;3.83;;;;;;;;;;5032766;28;20455;-62
2021/04/03 01:18:21;;;;;;;18.40;3.80;;;;;;;;;;5032922;28;20486;-60
2021/04/03 01:20:53;;;;;;;13.77;3.07;;;;;;;;;;5033143;28;20444;-62
2021/04/03 01:23:34;;;;;;;11.80;3.30;;;;;;;;;;5032988;28;20479;-60
2021/04/03 01:26:15;;;;;;;14.57;4.40;;;;;;;;;;5024363;28;20461;-58
2021/04/03 01:28:47;;;;;;;15.73;4.23;;;;;;;;;;5033148;28;20815;-59
2021/04/03 01:31:14;;;;;;;12.20;3.83;;;;;;;;;;5032943;28;20461;-58
2021/04/03 01:33:44;;;;;;;13.53;3.83;;;;;;;;;;5032730;28;20498;-61
2021/04/03 01:36:12;;;;;;;15.97;3.90;;;;;;;;;;5032385;28;20443;-60
2021/04/03 01:38:41;;;;;;;17.47;3.60;;;;;;;;;;5032593;28;20501;-62
2021/04/03 01:41:08;;;;;;;12.03;3.60;;;;;;;;;;5032205;28;20445;-60
2021/04/03 01:43:37;;;;;;;16.70;3.90;;;;;;;;;;5032298;28;20466;-61
2021/04/03 01:46:05;;;;;;;15.13;4.03;;;;;;;;;;5032237;28;20451;-61
2021/04/03 01:48:33;;;;;;;13.57;3.40;;;;;;;;;;5032442;28;20447;-60
2021/04/03 01:51:00;;;;;;;11.70;3.50;;;;;;;;;;5032532;28;20482;-58
2021/04/03 01:53:27;;;;;;;14.13;3.63;;;;;;;;;;5032135;28;20468;-60
2021/04/03 01:55:54;;;;;;;11.90;3.30;;;;;;;;;;5032085;28;20453;-61
2021/04/03 01:58:21;;;;;;;16.50;3.47;;;;;;;;;;5032534;28;20496;-61
2021/04/03 02:00:48;;;;;;;15.20;3.43;;;;;;;;;;5032290;28;20820;-61
2021/04/03 02:03:15;;;;;;;14.50;3.30;;;;;;;;;;5032223;28;20476;-62
2021/04/03 02:05:42;;;;;;;16.23;3.57;;;;;;;;;;5032055;28;20454;-62
2021/04/03 02:08:09;;;;;;;15.53;4.23;;;;;;;;;;5032326;28;20452;-61
2021/04/03 02:10:36;;;;;;;13.50;3.07;;;;;;;;;;5031844;28;20452;-60
2021/04/03 02:13:06;;;;;;;13.90;3.33;;;;;;;;;;5032321;28;20560;-62
2021/04/03 02:15:33;;;;;;;20.57;3.33;;;;;;;;;;5031741;28;20806;-62
2021/04/03 02:18:00;;;;;;;12.53;3.27;;;;;;;;;;5032205;28;20489;-63
2021/04/03 02:20:26;;;;;;;18.37;4.03;;;;;;;;;;5031864;28;20458;-61
2021/04/03 02:22:54;;;;;;;21.00;3.73;;;;;;;;;;5032058;28;20529;-62
2021/04/03 02:25:20;;;;;;;23.47;4.20;;;;;;;;;;5031706;28;20478;-59
2021/04/03 02:27:47;;;;;;;13.53;3.33;;;;;;;;;;5031680;28;20502;-62
2021/04/03 02:30:18;;;;;;;15.20;3.90;;;;;;;;;;5032131;28;20478;-63
2021/04/03 02:32:46;;;;;;;13.03;3.40;;;;;;;;;;5032134;28;20473;-62
2021/04/03 02:35:14;;;;;;;12.97;2.90;;;;;;;;;;5031935;28;20460;-61
2021/04/03 02:37:40;;;;;;;17.33;3.37;;;;;;;;;;5031157;28;20477;-62
2021/04/03 02:40:09;;;;;;;13.97;3.20;;;;;;;;;;5032319;28;20454;-62
2021/04/03 02:42:39;;;;;;;16.70;3.90;;;;;;;;;;5031834;28;20482;-61
2021/04/03 02:45:08;;;;;;;17.87;3.20;;;;;;;;;;5032228;28;21037;-60
2021/04/03 02:47:39;;;;;;;15.37;3.60;;;;;;;;;;5031637;28;20442;-62
2021/04/03 02:50:08;;;;;;;15.00;3.47;;;;;;;;;;5031569;28;20460;-62
2021/04/03 02:52:36;;;;;;;20.93;3.10;;;;;;;;;;5032517;28;20996;-61
2021/04/03 02:55:03;;;;;;;16.80;3.50;;;;;;;;;;5035716;28;20451;-62
2021/04/03 02:57:30;;;;;;;17.23;3.40;;;;;;;;;;5035550;28;20518;-62
2021/04/03 02:59:58;;;;;;;17.97;3.80;;;;;;;;;;5035049;28;20443;-61
2021/04/03 03:02:25;;;;;;;15.43;2.83;;;;;;;;;;5035133;28;20868;-62
2021/04/03 03:04:53;;;;;;;16.63;3.43;;;;;;;;;;5035019;28;20822;-62
2021/04/03 03:07:20;;;;;;;14.20;3.53;;;;;;;;;;5035345;28;20440;-62
2021/04/03 03:09:48;;;;;;;19.57;3.93;;;;;;;;;;5035121;28;20941;-62
2021/04/03 03:12:17;;;;;;;19.30;4.23;;;;;;;;;;5035714;28;20506;-62
2021/04/03 03:14:45;;;;;;;20.40;3.93;;;;;;;;;;5036278;28;20458;-62
2021/04/03 03:17:13;;;;;;;15.63;3.57;;;;;;;;;;5035247;28;20456;-61
2021/04/03 03:19:39;;;;;;;16.13;3.23;;;;;;;;;;5036186;28;20927;-62
2021/04/03 03:22:06;;;;;;;17.33;3.67;;;;;;;;;;5035678;28;20466;-62
2021/04/03 03:24:33;;;;;;;14.80;3.20;;;;;;;;;;5035590;28;20454;-62
2021/04/03 03:27:00;;;;;;;17.07;3.43;;;;;;;;;;5035621;28;20459;-62
2021/04/03 03:29:27;;;;;;;11.80;3.53;;;;;;;;;;5035161;28;20455;-60
2021/04/03 03:31:55;;;;;;;21.43;3.50;;;;;;;;;;5035257;28;20473;-59
2021/04/03 03:34:22;;;;;;;14.40;3.20;;;;;;;;;;5035082;28;20508;-61
2021/04/03 03:36:49;;;;;;;18.00;3.47;;;;;;;;;;5035032;28;20455;-58
2021/04/03 03:39:15;;;;;;;22.03;3.90;;;;;;;;;;5034694;28;20548;-62
2021/04/03 03:41:43;;;;;;;20.93;4.07;;;;;;;;;;5034760;28;20465;-61
2021/04/03 03:44:10;;;;;;;15.63;3.30;;;;;;;;;;5034712;28;20451;-59
2021/04/03 03:46:36;;;;;;;21.30;3.00;;;;;;;;;;5034197;28;20956;-61
2021/04/03 03:49:04;;;;;;;20.43;4.13;;;;;;;;;;5034897;28;20447;-58
2021/04/03 03:51:31;;;;;;;16.30;3.43;;;;;;;;;;5034569;28;20453;-59
2021/04/03 03:53:57;;;;;;;19.03;3.73;;;;;;;;;;5034735;28;20447;-59
2021/04/03 03:56:24;;;;;;;14.47;4.17;;;;;;;;;;5033966;28;20455;-61
2021/04/03 03:58:50;;;;;;;12.17;3.50;;;;;;;;;;5034308;28;20483;-61
2021/04/03 04:01:17;;;;;;;20.43;3.60;;;;;;;;;;5034470;28;20447;-61
2021/04/03 04:03:43;;;;;;;14.20;3.17;;;;;;;;;;5034377;28;20936;-58
2021/04/03 04:06:11;;;;;;;24.47;3.80;;;;;;;;;;5034059;28;20507;-60
2021/04/03 04:08:37;;;;;;;17.97;4.10;;;;;;;;;;5034111;28;20457;-59
2021/04/03 04:11:04;;;;;;;19.97;4.00;;;;;;;;;;5034278;28;20456;-62
2021/04/03 04:13:31;;;;;;;12.27;3.53;;;;;;;;;;5033711;28;20464;-57
2021/04/03 04:15:57;;;;;;;22.97;3.43;;;;;;;;;;5033953;28;20933;-57
2021/04/03 04:18:24;;;;;;;19.27;3.57;;;;;;;;;;5034041;28;20480;-61
2021/04/03 04:20:50;;;;;;;17.67;3.40;;;;;;;;;;5034083;28;20450;-59
2021/04/03 04:23:17;;;;;;;22.10;3.30;;;;;;;;;;5033958;28;20470;-61
2021/04/03 04:25:44;;;;;;;17.17;4.00;;;;;;;;;;5033498;28;20830;-58
2021/04/03 04:28:10;;;;;;;15.57;3.37;;;;;;;;;;5033777;28;20455;-58
2021/04/03 04:30:37;;;;;;;19.47;4.50;;;;;;;;;;5033528;28;20454;-61
2021/04/03 04:33:03;;;;;;;23.57;3.63;;;;;;;;;;5033872;28;20478;-61
2021/04/03 04:35:30;;;;;;;17.47;3.30;;;;;;;;;;5033344;28;20885;-58
2021/04/03 04:37:57;;;;;;;24.37;3.80;;;;;;;;;;5033871;28;20487;-60
2021/04/03 04:40:24;;;;;;;17.27;4.43;;;;;;;;;;5033680;28;20509;-59
2021/04/03 04:42:51;;;;;;;20.57;4.17;;;;;;;;;;5033981;28;20476;-62
2021/04/03 04:45:17;;;;;;;16.90;3.50;;;;;;;;;;5034635;28;20551;-62
2021/04/03 04:47:44;;;;;;;22.47;3.73;;;;;;;;;;5033205;28;20453;-61
2021/04/03 04:50:11;;;;;;;22.00;4.07;;;;;;;;;;5033329;28;20451;-61
2021/04/03 04:52:39;;;;;;;19.73;4.00;;;;;;;;;;5039482;28;20482;-62
2021/04/03 04:55:06;;;;;;;15.80;3.67;;;;;;;;;;5037972;28;20452;-63
2021/04/03 04:57:33;;;;;;;19.37;3.80;;;;;;;;;;5036070;28;20974;-63
2021/04/03 05:00:01;;;;;;;19.97;4.83;;;;;;;;;;5033400;28;20491;-60
2021/04/03 05:02:27;;;;;;;22.17;4.13;;;;;;;;;;5033247;28;20470;-62
2021/04/03 05:04:54;;;;;;;19.47;4.00;;;;;;;;;;5032651;28;20452;-62
2021/04/03 05:07:20;;;;;;;21.40;4.13;;;;;;;;;;5033004;28;20453;-59
2021/04/03 05:09:47;;;;;;;16.30;4.13;;;;;;;;;;5031848;28;20480;-60
2021/04/03 05:12:13;;;;;;;21.17;3.97;;;;;;;;;;5034213;28;20466;-61
2021/04/03 05:14:40;;;;;;;29.27;4.40;;;;;;;;;;5033467;28;20846;-59
2021/04/03 05:17:07;;;;;;;23.87;3.83;;;;;;;;;;5033096;28;20461;-62
2021/04/03 05:19:34;;;;;;;15.97;4.03;;;;;;;;;;5033254;28;20450;-62
2021/04/03 05:22:00;;;;;;;20.83;4.53;;;;;;;;;;5033016;28;20526;-64
2021/04/03 05:24:26;;;;;;;25.70;4.90;;;;;;;;;;5032747;28;20451;-63
2021/04/03 05:26:53;;;;;;;23.23;4.53;;;;;;;;;;5032283;28;20450;-63
2021/04/03 05:29:20;;;;;;;22.17;5.07;;;;;;;;;;5032747;28;20958;-63
2021/04/03 05:31:47;;;;;;;19.80;4.60;;;;;;;;;;5032669;28;20481;-64
2021/04/03 05:34:14;;;;;;;22.60;5.20;;;;;;;;;;5032010;28;20465;-64
2021/04/03 05:36:41;;;;;;;18.33;4.30;;;;;;;;;;5032376;28;20513;-62
2021/04/03 05:39:07;;;;;;;13.77;4.47;;;;;;;;;;5032214;28;20494;-63
2021/04/03 05:41:34;;;;;;;22.10;5.03;;;;;;;;;;5032624;28;20451;-62
2021/04/03 05:44:02;;;;;;;21.30;4.40;;;;;;;;;;5032383;28;20449;-63
2021/04/03 05:46:29;;;;;;;19.30;4.23;;;;;;;;;;5032365;28;20454;-64
2021/04/03 05:48:56;;;;;;;18.60;4.17;;;;;;;;;;5032411;28;20447;-63
2021/04/03 05:51:22;;;;;;;27.17;4.00;;;;;;;;;;5032068;28;20454;-64
2021/04/03 05:53:50;;;;;;;21.10;5.60;;;;;;;;;;5032621;28;20504;-64
2021/04/03 05:56:18;;;;;;;24.57;5.23;;;;;;;;;;5031918;28;20452;-63
2021/04/03 05:58:45;;;;;;;22.27;4.87;;;;;;;;;;5032227;28;20584;-63
2021/04/03 06:01:11;;;;;;;19.43;4.27;;;;;;;;;;5031882;28;20966;-63
2021/04/03 06:03:38;;;;;;;19.20;4.10;;;;;;;;;;5032247;28;20540;-63
2021/04/03 06:06:05;;;;;;;15.03;4.00;;;;;;;;;;5031425;28;20450;-63
2021/04/03 06:08:32;;;;;;;25.73;3.70;;;;;;;;;;5032311;28;20473;-63
2021/04/03 06:11:16;;;;;;;16.77;4.13;;;;;;;;;;5032074;28;20940;-64
2021/04/03 06:13:44;;;;;;;15.73;5.57;;;;;;;;;;5032139;28;20475;-63
2021/04/03 06:16:25;;;;;;;14.83;3.90;;;;;;;;;;5031938;28;20454;-63
2021/04/03 06:19:05;;;;;;;24.47;5.10;;;;;;;;;;5031961;28;20573;-63
2021/04/03 06:21:32;;;;;;;23.97;7.20;;;;;;;;;;5031891;28;20450;-63
2021/04/03 06:23:59;;;;;;;24.60;6.70;;;;;;;;;;5031757;28;21231;-63
2021/04/03 06:26:26;;;;;;;23.77;8.23;;;;;;;;;;5031603;28;20463;-64
2021/04/03 06:28:52;;;;;;;26.27;8.83;;;;;;;;;;5031509;28;20928;-63
2021/04/03 06:31:20;;;;;;;27.40;9.17;;;;;;;;;;5031837;28;20459;-64
2021/04/03 06:33:47;;;;;;;22.70;9.00;;;;;;;;;;5031881;28;20816;-64
2021/04/03 06:36:14;;;;;;;27.20;8.00;;;;;;;;;;5031396;28;20450;-64
2021/04/03 06:38:42;;;;;;;29.07;8.37;;;;;;;;;;5032125;28;20480;-63
2021/04/03 06:41:15;;;;;;;22.70;7.27;;;;;;;;;;5031770;28;20484;-64
2021/04/03 06:43:42;;;;;;;19.83;6.17;;;;;;;;;;5031697;28;20483;-64
2021/04/03 06:46:23;;;;;;;33.97;8.87;;;;;;;;;;5031338;28;20607;-64
2021/04/03 06:48:51;;;;;;;18.73;6.20;;;;;;;;;;5036156;28;20447;-65
2021/04/03 06:51:18;;;;;;;22.90;5.03;;;;;;;;;;5035753;28;20486;-63
2021/04/03 06:53:46;;;;;;;30.30;5.27;;;;;;;;;;5035866;28;20483;-65
2021/04/03 06:56:13;;;;;;;18.47;4.53;;;;;;;;;;5035604;28;20787;-64
2021/04/03 06:58:41;;;;;;;23.83;4.80;;;;;;;;;;5035961;28;20496;-64
2021/04/03 07:01:08;;;;;;;30.50;5.40;;;;;;;;;;5035680;28;20831;-64
2021/04/03 07:03:35;;;;;;;24.33;5.43;;;;;;;;;;5035593;28;20541;-62
2021/04/03 07:06:02;;;;;;;18.07;4.67;;;;;;;;;;5035533;28;20455;-61
2021/04/03 07:08:28;;;;;;;18.17;4.10;;;;;;;;;;5035289;28;20832;-62
2021/04/03 07:10:56;;;;;;;19.17;4.20;;;;;;;;;;5035815;28;20448;-62
2021/04/03 07:13:23;;;;;;;25.57;5.27;;;;;;;;;;5035537;28;20476;-62
2021/04/03 07:15:52;;;;;;;21.27;5.10;;;;;;;;;;5035090;28;20445;-62
2021/04/03 07:18:19;;;;;;;23.27;4.93;;;;;;;;;;5035306;28;20567;-64
2021/04/03 07:20:46;;;;;;;19.03;5.10;;;;;;;;;;5034991;28;20449;-64
2021/04/03 07:23:15;;;;;;;27.00;5.53;;;;;;;;;;5034973;28;21114;-62
2021/04/03 07:25:43;;;;;;;23.97;5.40;;;;;;;;;;5034765;28;20452;-63
2021/04/03 07:28:10;;;;;;;23.27;5.73;;;;;;;;;;5035771;28;20479;-63
2021/04/03 07:30:44;;;;;;;25.77;6.07;;;;;;;;;;5035121;28;20472;-63
2021/04/03 07:33:11;;;;;;;22.60;5.57;;;;;;;;;;5035185;28;20650;-63
2021/04/03 07:35:38;;;;;;;20.20;5.40;;;;;;;;;;5034753;28;20457;-63
2021/04/03 07:38:09;;;;;;;27.13;6.53;;;;;;;;;;5034652;28;20489;-64
2021/04/03 07:40:42;;;;;;;22.47;6.03;;;;;;;;;;5035011;28;20458;-63
2021/04/03 07:43:24;;;;;;;22.00;5.90;;;;;;;;;;5034638;28;20480;-63
2021/04/03 07:45:51;;;;;;;20.37;5.67;;;;;;;;;;5034513;28;20445;-64
2021/04/03 07:48:36;;;;;;;19.33;6.00;;;;;;;;;;5034721;28;20445;-63
2021/04/03 07:51:03;;;;;;;22.50;6.17;;;;;;;;;;5034783;28;20460;-61
2021/04/03 07:53:33;;;;;;;18.10;5.87;;;;;;;;;;5034651;28;20490;-64
2021/04/03 07:56:00;;;;;;;26.73;8.83;;;;;;;;;;5031305;28;20535;-63
2021/04/03 07:58:27;;;;;;;26.47;8.57;;;;;;;;;;5033592;28;20513;-63
2021/04/03 08:00:55;;;;;;;21.33;6.53;;;;;;;;;;5034678;28;20453;-63
2021/04/03 08:03:22;;;;;;;19.00;6.70;;;;;;;;;;5034612;28;20503;-63
2021/04/03 08:05:49;;;;;;;24.83;7.53;;;;;;;;;;5034120;28;20518;-63
2021/04/03 08:08:18;;;;;;;28.87;10.57;;;;;;;;;;5034244;28;20514;-63
2021/04/03 08:10:45;;;;;;;22.33;8.90;;;;;;;;;;5033952;28;20453;-62
2021/04/03 08:13:12;;;;;;;22.67;9.60;;;;;;;;;;5033957;28;20480;-62
2021/04/03 08:15:42;;;;;;;19.53;6.40;;;;;;;;;;5034333;28;20456;-61
2021/04/03 08:18:10;;;;;;;18.90;5.77;;;;;;;;;;5034286;28;20481;-61
2021/04/03 08:20:37;;;;;;;25.87;7.17;;;;;;;;;;5034099;28;20450;-61
2021/04/03 08:23:04;;;;;;;21.03;6.97;;;;;;;;;;5033417;28;20469;-62
2021/04/03 08:25:31;;;;;;;25.83;8.60;;;;;;;;;;5033681;28;20536;-61
2021/04/03 08:27:59;;;;;;;21.40;7.80;;;;;;;;;;5033505;28;20457;-61
2021/04/03 08:30:30;;;;;;;19.07;5.97;;;;;;;;;;5033945;28;20835;-62
2021/04/03 08:33:03;;;;;;;24.83;7.83;;;;;;;;;;5033805;28;20519;-62
2021/04/03 08:35:30;;;;;;;13.43;6.37;;;;;;;;;;5033919;28;20461;-61
2021/04/03 08:38:06;;;;;;;21.23;9.47;;;;;;;;;;5033591;28;20485;-61
2021/04/03 08:40:33;;;;;;;21.07;9.30;;;;;;;;;;5033962;28;20468;-61
2021/04/03 08:42:59;;;;;;;28.37;8.50;;;;;;;;;;5036668;28;20473;-62
2021/04/03 08:45:26;;;;;;;24.60;7.20;;;;;;;;;;5037395;28;20475;-62
2021/04/03 08:47:52;;;;;;;21.90;7.57;;;;;;;;;;5033398;28;20485;-61
2021/04/03 08:50:19;;;;;;;23.87;10.47;;;;;;;;;;5034462;28;20500;-62
2021/04/03 08:52:46;;;;;;;35.57;12.43;;;;;;;;;;5034034;28;20469;-62
2021/04/03 08:55:13;;;;;;;29.50;12.07;;;;;;;;;;5035266;28;20468;-63
2021/04/03 08:57:40;;;;;;;29.47;10.67;;;;;;;;;;5035675;28;20457;-61
2021/04/03 09:00:07;;;;;;;32.60;12.43;;;;;;;;;;5036526;28;20207;-61
2021/04/03 09:02:33;;;;;;;27.87;13.67;;;;;;;;;;5029925;28;20222;-60
2021/04/03 09:05:02;;;;;;;25.83;11.57;;;;;;;;;;5047569;28;20441;-56
2021/04/03 09:07:31;;;;;;;27.50;12.63;;;;;;;;;;5037649;28;20448;-60
2021/04/03 09:10:07;;;;;;;33.60;12.23;;;;;;;;;;5052896;28;20546;-57
2021/04/03 09:12:33;;;;;;;31.00;11.50;;;;;;;;;;5052684;28;20472;-58
2021/04/03 09:15:00;;;;;;;31.30;12.90;;;;;;;;;;5053337;28;20206;-60
2021/04/03 09:17:27;;;;;;;31.57;13.57;;;;;;;;;;5058157;28;20506;-61
2021/04/03 09:20:04;;;;;;;31.87;14.53;;;;;;;;;;5053134;28;20487;-64
2021/04/03 09:22:36;;;;;;;24.67;13.97;;;;;;;;;;5053262;28;20467;-64
2021/04/03 09:25:03;;;;;;;28.97;16.00;;;;;;;;;;5053940;28;20205;-58
2021/04/03 09:27:30;;;;;;;33.37;17.07;;;;;;;;;;5053705;28;20213;-58
2021/04/03 09:30:04;;;;;;;36.90;16.33;;;;;;;;;;5053029;28;20260;-56
2021/04/03 09:32:39;;;;;;;35.43;14.43;;;;;;;;;;5052861;28;20702;-57
2021/04/03 09:35:06;;;;;;;34.37;19.27;;;;;;;;;;5051315;28;20518;-62
2021/04/03 09:37:33;;;;;;;27.03;12.43;;;;;;;;;;5051662;28;20211;-61
2021/04/03 09:40:00;;;;;;;27.83;15.23;;;;;;;;;;5052189;28;20207;-62
2021/04/03 09:42:27;;;;;;;38.57;16.67;;;;;;;;;;5051970;28;20226;-67
2021/04/03 09:44:54;;;;;;;34.63;13.80;;;;;;;;;;5051571;28;20263;-62
2021/04/03 09:47:21;;;;;;;29.70;12.90;;;;;;;;;;5052076;28;20257;-62
2021/04/03 09:49:49;;;;;;;34.30;12.63;;;;;;;;;;5052033;28;20290;-63
2021/04/03 09:52:15;;;;;;;28.90;13.97;;;;;;;;;;5052013;28;20228;-62
2021/04/03 09:54:43;;;;;;;29.73;13.47;;;;;;;;;;5051574;28;20217;-62
2021/04/03 09:57:10;;;;;;;30.57;13.03;;;;;;;;;;5051117;28;20210;-63
2021/04/03 09:59:36;;;;;;;36.13;15.20;;;;;;;;;;5051719;28;20279;-62
2021/04/03 10:02:04;;;;;;;31.77;15.63;;;;;;;;;;5051744;28;20228;-62
2021/04/03 10:04:31;;;;;;;31.77;13.93;;;;;;;;;;5051649;28;20250;-62
2021/04/03 10:06:57;;;;;;;33.77;15.43;;;;;;;;;;5051244;28;20248;-62
2021/04/03 10:09:24;;;;;;;39.03;13.63;;;;;;;;;;5051648;28;20729;-63
2021/04/03 10:11:52;;;;;;;29.53;11.97;;;;;;;;;;5051430;28;20233;-61
2021/04/03 10:14:18;;;;;;;34.87;15.77;;;;;;;;;;5051051;28;20214;-60
2021/04/03 10:16:45;;;;;;;29.13;14.57;;;;;;;;;;5051427;28;20210;-61
2021/04/03 10:19:12;;;;;;;30.23;13.63;;;;;;;;;;5051197;28;20227;-62
2021/04/03 10:21:39;;;;;;;36.27;15.13;;;;;;;;;;5051005;28;20839;-61
2021/04/03 10:24:06;;;;;;;32.60;13.70;;;;;;;;;;5051270;28;20665;-62
2021/04/03 10:26:32;;;;;;;28.60;10.87;;;;;;;;;;5050794;28;20612;-67
2021/04/03 10:28:59;;;;;;;31.10;13.60;;;;;;;;;;5051643;28;20240;-67
2021/04/03 10:31:25;;;;;;;26.03;10.87;;;;;;;;;;5050944;28;20212;-66
2021/04/03 10:33:52;;;;;;;19.57;9.33;;;;;;;;;;5051166;28;20218;-67
2021/04/03 10:36:19;;;;;;;23.50;11.20;;;;;;;;;;5050911;28;20228;-66
2021/04/03 10:38:47;;;;;;;23.20;10.13;;;;;;;;;;5051036;28;20235;-63
2021/04/03 10:41:13;;;;;;;20.53;9.83;;;;;;;;;;5051248;28;20282;-66
2021/04/03 10:43:40;;;;;;;26.63;9.00;;;;;;;;;;5050897;28;20225;-65
2021/04/03 10:46:07;;;;;;;24.27;8.33;;;;;;;;;;5051175;28;20201;-66
2021/04/03 10:48:34;;;;;;;19.33;8.80;;;;;;;;;;5051129;28;20860;-65
2021/04/03 10:51:00;;;;;;;25.57;9.67;;;;;;;;;;5050950;28;20205;-65
2021/04/03 10:53:28;;;;;;;18.40;8.13;;;;;;;;;;5050670;28;20240;-65
2021/04/03 10:55:54;;;;;;;17.03;8.00;;;;;;;;;;5050870;28;20209;-66
2021/04/03 10:58:21;;;;;;;19.33;9.30;;;;;;;;;;5051345;28;20228;-64
2021/04/03 11:00:47;;;;;;;26.70;10.40;;;;;;;;;;5050963;28;20205;-65
2021/04/03 11:03:14;;;;;;;20.73;11.57;;;;;;;;;;5050590;28;20283;-64
2021/04/03 11:05:40;;;;;;;31.33;10.23;;;;;;;;;;5050972;28;20590;-64
2021/04/03 11:08:07;;;;;;;18.00;10.93;;;;;;;;;;5050469;28;20202;-64
2021/04/03 11:10:34;;;;;;;27.57;12.17;;;;;;;;;;5051214;28;20216;-64
2021/04/03 11:13:02;;;;;;;22.37;10.47;;;;;;;;;;5050473;28;20894;-65
2021/04/03 11:15:29;;;;;;;23.20;9.40;;;;;;;;;;5050951;28;20240;-65
2021/04/03 11:17:55;;;;;;;15.70;7.47;;;;;;;;;;5050540;28;20202;-65
2021/04/03 11:20:22;;;;;;;21.43;9.57;;;;;;;;;;5050759;28;20222;-65
2021/04/03 11:22:48;;;;;;;19.37;7.50;;;;;;;;;;5050500;28;20324;-64
2021/04/03 11:25:15;;;;;;;14.30;6.10;;;;;;;;;;5050844;28;20213;-64
2021/04/03 11:27:43;;;;;;;18.87;8.43;;;;;;;;;;5050617;28;20210;-65
2021/04/03 11:30:13;;;;;;;18.37;6.50;;;;;;;;;;5050731;28;20705;-65
2021/04/03 11:32:40;;;;;;;16.07;6.80;;;;;;;;;;5051172;28;20784;-65
2021/04/03 11:35:08;;;;;;;18.17;6.73;;;;;;;;;;5054107;28;20209;-65
2021/04/03 11:37:34;;;;;;;23.90;7.20;;;;;;;;;;5054208;28;20236;-65
2021/04/03 11:40:01;;;;;;;13.53;6.17;;;;;;;;;;5054584;28;20229;-65
2021/04/03 11:42:28;;;;;;;23.87;6.77;;;;;;;;;;5054427;28;20225;-65
2021/04/03 11:44:55;;;;;;;18.33;6.70;;;;;;;;;;5053992;28;20666;-65
2021/04/03 11:47:23;;;;;;;13.27;5.57;;;;;;;;;;5054221;28;20214;-65
2021/04/03 11:49:49;;;;;;;19.27;6.10;;;;;;;;;;5053714;28;20206;-65
2021/04/03 11:52:16;;;;;;;16.70;5.93;;;;;;;;;;5054401;28;20332;-65
2021/04/03 11:54:42;;;;;;;13.57;6.40;;;;;;;;;;5054240;28;20347;-65
2021/04/03 11:57:09;;;;;;;13.87;5.57;;;;;;;;;;5054054;28;20217;-65
2021/04/03 11:59:35;;;;;;;20.10;7.30;;;;;;;;;;5054086;28;20222;-65
2021/04/03 12:02:03;;;;;;;18.20;7.70;;;;;;;;;;5053705;28;20222;-65
2021/04/03 12:04:29;;;;;;;22.43;10.13;;;;;;;;;;5054081;28;20209;-65
2021/04/03 12:06:56;;;;;;;18.70;8.50;;;;;;;;;;5053606;28;20247;-66
2021/04/03 12:09:22;;;;;;;23.27;9.40;;;;;;;;;;5054371;28;20577;-60
2021/04/03 12:11:49;;;;;;;18.20;7.00;;;;;;;;;;5053780;28;20257;-61
2021/04/03 12:14:15;;;;;;;14.03;6.40;;;;;;;;;;5053671;28;20339;-62
2021/04/03 12:16:42;;;;;;;18.77;7.67;;;;;;;;;;5053515;28;20211;-63
2021/04/03 12:19:09;;;;;;;19.97;7.47;;;;;;;;;;5053548;28;20231;-63
2021/04/03 12:21:36;;;;;;;16.93;6.83;;;;;;;;;;5053805;28;20225;-62
2021/04/03 12:24:02;;;;;;;16.90;6.67;;;;;;;;;;5053536;28;20590;-62
2021/04/03 12:26:29;;;;;;;14.10;6.27;;;;;;;;;;5053220;28;20742;-63
2021/04/03 12:28:55;;;;;;;15.87;6.50;;;;;;;;;;5053653;28;20251;-62
2021/04/03 12:31:22;;;;;;;16.83;6.77;;;;;;;;;;5053207;28;20805;-62
2021/04/03 12:33:48;;;;;;;15.93;6.97;;;;;;;;;;5053196;28;20268;-62
2021/04/03 12:36:17;;;;;;;14.23;7.30;;;;;;;;;;5053051;28;20213;-62
2021/04/03 12:38:44;;;;;;;14.63;6.57;;;;;;;;;;5053956;28;20279;-61
2021/04/03 12:41:11;;;;;;;17.87;6.67;;;;;;;;;;5053167;28;20612;-62
2021/04/03 12:43:37;;;;;;;23.07;7.53;;;;;;;;;;5051461;28;20224;-60
2021/04/03 12:46:04;;;;;;;14.83;5.53;;;;;;;;;;5051586;28;20205;-67
2021/04/03 12:48:30;;;;;;;14.77;5.53;;;;;;;;;;5053428;28;20253;-63
2021/04/03 12:50:57;;;;;;;16.17;6.23;;;;;;;;;;5047256;28;20222;-64
2021/04/03 12:53:26;;;;;;;14.47;6.43;;;;;;;;;;5033276;28;20230;-59
2021/04/03 12:55:53;;;;;;;12.87;5.43;;;;;;;;;;5032556;28;20210;-63
2021/04/03 12:58:20;;;;;;;18.37;6.23;;;;;;;;;;5032512;28;20703;-60
2021/04/03 13:00:46;;;;;;;16.80;6.13;;;;;;;;;;5032842;28;20225;-61
2021/04/03 13:03:13;;;;;;;12.03;5.80;;;;;;;;;;5032495;28;20772;-64
2021/04/03 13:05:40;;;;;;;16.57;6.57;;;;;;;;;;5033041;28;20357;-64
2021/04/03 13:08:07;;;;;;;17.93;6.40;;;;;;;;;;5032557;28;20213;-61
2021/04/03 13:10:34;;;;;;;15.43;6.53;;;;;;;;;;5033136;28;20583;-63
2021/04/03 13:13:01;;;;;;;14.73;6.60;;;;;;;;;;5032161;28;20234;-59
2021/04/03 13:15:27;;;;;;;14.37;7.10;;;;;;;;;;5032975;28;20206;-63
2021/04/03 13:17:54;;;;;;;16.20;6.10;;;;;;;;;;5032353;28;20213;-64
2021/04/03 13:20:21;;;;;;;19.40;6.57;;;;;;;;;;5033053;28;20282;-63
2021/04/03 13:22:48;;;;;;;12.73;6.07;;;;;;;;;;5032269;28;20233;-63
2021/04/03 13:25:14;;;;;;;15.80;6.47;;;;;;;;;;5032580;28;20206;-62
2021/04/03 13:27:41;;;;;;;10.17;5.07;;;;;;;;;;5032138;28;20213;-65
2021/04/03 13:30:09;;;;;;;16.63;4.80;;;;;;;;;;5032572;28;20217;-62
2021/04/03 13:32:36;;;;;;;13.37;5.80;;;;;;;;;;5032331;28;20731;-62
2021/04/03 13:35:02;;;;;;;8.47;4.00;;;;;;;;;;5032138;28;20572;-63
2021/04/03 13:37:29;;;;;;;8.13;3.70;;;;;;;;;;5031921;28;20214;-62
2021/04/03 13:39:55;;;;;;;9.97;3.83;;;;;;;;;;5032404;28;20225;-63
2021/04/03 13:42:23;;;;;;;11.00;3.83;;;;;;;;;;5031545;28;20223;-62
2021/04/03 13:44:50;;;;;;;10.30;3.77;;;;;;;;;;5031878;28;20213;-62
2021/04/03 13:47:16;;;;;;;8.93;3.40;;;;;;;;;;5032329;28;20207;-61
2021/04/03 13:49:43;;;;;;;13.13;4.50;;;;;;;;;;5032117;28;20211;-64
2021/04/03 13:52:10;;;;;;;14.77;5.97;;;;;;;;;;5032493;28;20247;-64
2021/04/03 13:54:36;;;;;;;11.70;5.47;;;;;;;;;;5032206;28;20235;-65
2021/04/03 13:57:03;;;;;;;12.83;5.80;;;;;;;;;;5031698;28;20669;-63
2021/04/03 13:59:29;;;;;;;18.00;6.80;;;;;;;;;;5032755;28;20234;-61
2021/04/03 14:01:57;;;;;;;14.00;5.87;;;;;;;;;;5032471;28;20231;-62
2021/04/03 14:04:23;;;;;;;13.00;5.77;;;;;;;;;;5032290;28;20210;-62
2021/04/03 14:06:50;;;;;;;16.20;5.83;;;;;;;;;;5032073;28;20210;-61
2021/04/03 14:09:16;;;;;;;17.33;6.00;;;;;;;;;;5031954;28;20664;-60
2021/04/03 14:11:43;;;;;;;11.87;5.27;;;;;;;;;;5031857;28;20214;-62
2021/04/03 14:14:09;;;;;;;13.70;5.23;;;;;;;;;;5031990;28;20211;-61
2021/04/03 14:16:36;;;;;;;14.57;4.70;;;;;;;;;;5031515;28;20207;-65
2021/04/03 14:19:03;;;;;;;18.50;5.97;;;;;;;;;;5031611;28;20256;-65
2021/04/03 14:21:30;;;;;;;11.37;4.50;;;;;;;;;;5031630;28;20635;-63
2021/04/03 14:23:56;;;;;;;12.20;4.40;;;;;;;;;;5031249;28;20215;-64
2021/04/03 14:26:23;;;;;;;11.00;4.33;;;;;;;;;;5031684;28;20234;-65
2021/04/03 14:28:50;;;;;;;12.10;4.30;;;;;;;;;;5031375;28;20588;-64
2021/04/03 14:31:17;;;;;;;16.30;5.53;;;;;;;;;;5031702;28;20211;-64